Photometre #541[Polarized_P] IASBS AOT

File : 20200924_541.hum

24/09/2020,03:20:53,TEMP=15.6,BA=5.32,STAT.A=Abs.,ExtBa=10.95
24/09/2020,03:24:05,TEMP=16.0,BA=5.32,STAT.A=Abs.,ExtBa=10.89
24/09/2020,03:27:50,TEMP=16.3,BA=5.32,STAT.A=Abs.,ExtBa=10.88
24/09/2020,03:32:16,TEMP=16.5,BA=5.32,STAT.A=Abs.,ExtBa=10.87
24/09/2020,03:37:38,TEMP=16.9,BA=5.32,STAT.A=Abs.,ExtBa=10.88
24/09/2020,03:44:14,TEMP=17.3,BA=5.36,STAT.A=Abs.,ExtBa=10.90
24/09/2020,03:52:33,TEMP=17.6,BA=5.36,STAT.B=Abs.,ExtBa=10.93
24/09/2020,03:59:21,TEMP=18.2,BA=5.36,STAT.A=Abs.,ExtBa=10.70
24/09/2020,04:01:03,TEMP=18.3,BA=5.12,STAT.A=Abs.,ExtBa=10.73
24/09/2020,04:06:02,TEMP=18.2,BA=5.12,STAT.A=Abs.,ExtBa=10.77
24/09/2020,04:11:42,TEMP=18.4,BA=5.36,STAT.A=Abs.,ExtBa=10.82
24/09/2020,04:18:14,TEMP=18.8,BA=5.36,STAT.C=Abs.,ExtBa=10.87
24/09/2020,04:31:11,TEMP=20.4,BA=5.12,STAT.A=Abs.,ExtBa=10.68
24/09/2020,04:34:44,TEMP=19.8,BA=5.12,STAT.A=Abs.,ExtBa=10.75
24/09/2020,04:45:19,TEMP=20.0,BA=5.36,STAT.A=Abs.,ExtBa=10.87
24/09/2020,04:58:18,TEMP=20.4,BA=5.40,STAT.A=Abs.,ExtBa=10.98
24/09/2020,05:14:34,TEMP=21.0,BA=5.40,STAT.B=Abs.,ExtBa=11.13
24/09/2020,05:23:18,TEMP=21.3,BA=5.12,STAT.D=Abs.,ExtBa=10.95
24/09/2020,05:38:20,TEMP=21.6,BA=5.36,STAT.F
24/09/2020,05:53:19,TEMP=22.6,BA=5.12,STAT.D=Abs.,ExtBa=10.88
24/09/2020,06:08:19,TEMP=23.3,BA=5.36,STAT.D=Abs.,ExtBa=11.15
24/09/2020,06:23:19,TEMP=24.1,BA=5.36,STAT.D=Abs.,ExtBa=11.24
24/09/2020,06:38:21,TEMP=24.5,BA=5.36,STAT.F
24/09/2020,06:53:19,TEMP=25.7,BA=5.16,STAT.D=Abs.,ExtBa=11.01
24/09/2020,07:08:19,TEMP=26.1,BA=5.32,STAT.D=Abs.,ExtBa=11.18
24/09/2020,07:23:19,TEMP=26.6,BA=5.32,STAT.D=Abs.,ExtBa=11.22
24/09/2020,07:38:21,TEMP=27.3,BA=5.32,STAT.F
24/09/2020,07:53:19,TEMP=28.0,BA=5.32,STAT.D=Abs.,ExtBa=11.16
24/09/2020,08:08:19,TEMP=28.1,BA=5.32,STAT.D=Abs.,ExtBa=11.21
24/09/2020,08:23:20,TEMP=28.1,BA=5.32,STAT.D=Abs.,ExtBa=11.23
24/09/2020,08:38:21,TEMP=28.8,BA=5.32,STAT.F
24/09/2020,08:53:20,TEMP=29.2,BA=5.32,STAT.D=Abs.,ExtBa=11.21
24/09/2020,09:08:19,TEMP=29.4,BA=5.32,STAT.D=Abs.,ExtBa=11.24
24/09/2020,09:23:19,TEMP=30.2,BA=5.32,STAT.D=Abs.,ExtBa=11.26
24/09/2020,09:38:21,TEMP=30.9,BA=5.32,STAT.F
24/09/2020,09:53:19,TEMP=31.5,BA=5.16,STAT.D=Abs.,ExtBa=11.11
24/09/2020,10:08:19,TEMP=31.2,BA=5.32,STAT.D=Abs.,ExtBa=11.18
24/09/2020,10:23:19,TEMP=31.0,BA=5.32,STAT.D=Abs.,ExtBa=11.24
24/09/2020,10:38:21,TEMP=30.8,BA=5.32,STAT.F
24/09/2020,10:53:19,TEMP=30.9,BA=5.20,STAT.D=Abs.,ExtBa=11.09
24/09/2020,11:08:21,TEMP=30.6,BA=5.32,STAT.D=Abs.,ExtBa=11.17
24/09/2020,11:23:19,TEMP=31.0,BA=5.32,STAT.D=Abs.,ExtBa=11.18
24/09/2020,11:38:20,TEMP=31.0,BA=5.32,STAT.F
24/09/2020,11:53:19,TEMP=30.8,BA=5.20,STAT.D=Abs.,ExtBa=11.05
24/09/2020,12:02:06,TEMP=31.0,BA=5.32,STAT.B=Abs.,ExtBa=11.08
24/09/2020,12:18:22,TEMP=30.6,BA=5.32,STAT.A=Abs.,ExtBa=11.01
24/09/2020,12:31:21,TEMP=30.8,BA=5.32,STAT.A=Abs.,ExtBa=11.04
24/09/2020,12:41:58,TEMP=30.8,BA=5.32,STAT.A=Abs.,ExtBa=11.05
24/09/2020,12:50:52,TEMP=31.0,BA=5.32,STAT.A=Abs.,ExtBa=11.04
24/09/2020,12:58:26,TEMP=30.9,BA=5.32,STAT.C=Abs.,ExtBa=11.03
24/09/2020,13:11:32,TEMP=30.9,BA=5.20,STAT.A=Abs.,ExtBa=10.76
24/09/2020,13:13:17,TEMP=30.6,BA=5.20,STAT.A=Abs.,ExtBa=10.76
24/09/2020,13:15:40,TEMP=30.2,BA=5.20,STAT.A=Abs.,ExtBa=10.77
24/09/2020,13:20:07,TEMP=29.8,BA=5.20,STAT.A=Abs.,ExtBa=10.77
24/09/2020,13:24:04,TEMP=29.6,BA=5.20,STAT.B=Abs.,ExtBa=10.77
24/09/2020,13:32:24,TEMP=29.2,BA=5.16,STAT.A=Abs.,ExtBa=10.61
24/09/2020,13:39:00,TEMP=28.9,BA=5.16,STAT.A=Abs.,ExtBa=10.65
24/09/2020,13:44:22,TEMP=28.6,BA=5.20,STAT.A=Abs.,ExtBa=10.65
24/09/2020,13:48:48,TEMP=28.4,BA=5.20,STAT.A=Abs.,ExtBa=10.63
24/09/2020,13:52:32,TEMP=28.2,BA=5.20,STAT.A=Abs.,ExtBa=10.62
24/09/2020,13:55:45,TEMP=28.0,BA=5.20,STAT.A=Abs.,ExtBa=10.60